sensor_id;sensor_type;location;lat;lon;timestamp;temperature;humidity
75683;HTU21D;64295;44.772;39.872;2023-08-06T00:00:51;25.51;49.65
75683;HTU21D;64295;44.772;39.872;2023-08-06T00:03:17;25.50;49.63
75683;HTU21D;64295;44.772;39.872;2023-08-06T00:05:43;25.45;49.68
75683;HTU21D;64295;44.772;39.872;2023-08-06T00:08:10;25.45;49.79
75683;HTU21D;64295;44.772;39.872;2023-08-06T00:10:36;25.42;49.89
75683;HTU21D;64295;44.772;39.872;2023-08-06T00:13:03;25.36;50.02
75683;HTU21D;64295;44.772;39.872;2023-08-06T00:15:31;25.34;50.14
75683;HTU21D;64295;44.772;39.872;2023-08-06T00:18:05;25.29;50.26
75683;HTU21D;64295;44.772;39.872;2023-08-06T00:20:31;25.22;50.40
75683;HTU21D;64295;44.772;39.872;2023-08-06T00:23:00;25.17;50.59
75683;HTU21D;64295;44.772;39.872;2023-08-06T00:25:31;25.10;50.72
75683;HTU21D;64295;44.772;39.872;2023-08-06T00:28:08;25.04;50.79
75683;HTU21D;64295;44.772;39.872;2023-08-06T00:31:04;24.98;50.89
75683;HTU21D;64295;44.772;39.872;2023-08-06T00:33:32;24.97;50.98
75683;HTU21D;64295;44.772;39.872;2023-08-06T00:36:02;24.90;51.02
75683;HTU21D;64295;44.772;39.872;2023-08-06T00:38:40;24.86;51.05
75683;HTU21D;64295;44.772;39.872;2023-08-06T00:41:08;24.82;51.08
75683;HTU21D;64295;44.772;39.872;2023-08-06T00:43:34;24.82;51.14
75683;HTU21D;64295;44.772;39.872;2023-08-06T00:46:00;24.79;51.08
75683;HTU21D;64295;44.772;39.872;2023-08-06T00:48:31;24.77;51.08
75683;HTU21D;64295;44.772;39.872;2023-08-06T00:51:00;24.77;51.05
75683;HTU21D;64295;44.772;39.872;2023-08-06T00:53:29;24.78;51.08
75683;HTU21D;64295;44.772;39.872;2023-08-06T00:55:56;24.79;51.17
75683;HTU21D;64295;44.772;39.872;2023-08-06T00:58:23;24.79;51.21
75683;HTU21D;64295;44.772;39.872;2023-08-06T01:00:53;24.79;51.27
75683;HTU21D;64295;44.772;39.872;2023-08-06T01:03:20;24.78;51.30
75683;HTU21D;64295;44.772;39.872;2023-08-06T01:05:48;24.79;51.35
75683;HTU21D;64295;44.772;39.872;2023-08-06T01:08:36;24.78;51.40
75683;HTU21D;64295;44.772;39.872;2023-08-06T01:13:58;24.74;51.41
75683;HTU21D;64295;44.772;39.872;2023-08-06T01:16:25;24.74;51.45
75683;HTU21D;64295;44.772;39.872;2023-08-06T01:18:52;24.75;51.50
75683;HTU21D;64295;44.772;39.872;2023-08-06T01:21:18;24.75;51.57
75683;HTU21D;64295;44.772;39.872;2023-08-06T01:23:45;24.74;51.63
75683;HTU21D;64295;44.772;39.872;2023-08-06T01:28:50;24.72;51.80
75683;HTU21D;64295;44.772;39.872;2023-08-06T01:31:36;24.66;52.01
75683;HTU21D;64295;44.772;39.872;2023-08-06T01:34:06;24.61;52.14
75683;HTU21D;64295;44.772;39.872;2023-08-06T01:36:33;24.57;52.27
75683;HTU21D;64295;44.772;39.872;2023-08-06T01:39:01;24.55;52.33
75683;HTU21D;64295;44.772;39.872;2023-08-06T01:41:27;24.53;52.39
75683;HTU21D;64295;44.772;39.872;2023-08-06T01:43:53;24.49;52.43
75683;HTU21D;64295;44.772;39.872;2023-08-06T01:46:19;24.49;52.47
75683;HTU21D;64295;44.772;39.872;2023-08-06T01:48:45;24.48;52.49
75683;HTU21D;64295;44.772;39.872;2023-08-06T01:51:11;24.47;52.52
75683;HTU21D;64295;44.772;39.872;2023-08-06T01:53:37;24.47;52.57
75683;HTU21D;64295;44.772;39.872;2023-08-06T01:56:03;24.47;52.59
75683;HTU21D;64295;44.772;39.872;2023-08-06T01:58:29;24.47;52.66
75683;HTU21D;64295;44.772;39.872;2023-08-06T02:00:55;24.44;52.78
75683;HTU21D;64295;44.772;39.872;2023-08-06T02:03:23;24.42;52.85
75683;HTU21D;64295;44.772;39.872;2023-08-06T02:05:49;24.36;52.98
75683;HTU21D;64295;44.772;39.872;2023-08-06T02:08:15;24.33;53.11
75683;HTU21D;64295;44.772;39.872;2023-08-06T02:10:41;24.28;53.19
75683;HTU21D;64295;44.772;39.872;2023-08-06T02:13:07;24.25;53.27
75683;HTU21D;64295;44.772;39.872;2023-08-06T02:15:33;24.18;53.32
75683;HTU21D;64295;44.772;39.872;2023-08-06T02:18:00;24.13;53.36
75683;HTU21D;64295;44.772;39.872;2023-08-06T02:20:27;24.10;53.42
75683;HTU21D;64295;44.772;39.872;2023-08-06T02:22:54;24.05;53.36
75683;HTU21D;64295;44.772;39.872;2023-08-06T02:25:20;24.05;53.30
75683;HTU21D;64295;44.772;39.872;2023-08-06T02:27:46;24.03;53.30
75683;HTU21D;64295;44.772;39.872;2023-08-06T02:30:13;24.01;53.39
75683;HTU21D;64295;44.772;39.872;2023-08-06T02:32:39;23.98;53.33
75683;HTU21D;64295;44.772;39.872;2023-08-06T02:35:06;23.99;53.32
75683;HTU21D;64295;44.772;39.872;2023-08-06T02:37:35;23.99;53.24
75683;HTU21D;64295;44.772;39.872;2023-08-06T02:40:02;24.01;53.23
75683;HTU21D;64295;44.772;39.872;2023-08-06T02:42:29;24.02;53.25
75683;HTU21D;64295;44.772;39.872;2023-08-06T02:44:55;24.02;53.23
75683;HTU21D;64295;44.772;39.872;2023-08-06T02:47:22;24.05;53.10
75683;HTU21D;64295;44.772;39.872;2023-08-06T02:49:49;24.09;52.99
75683;HTU21D;64295;44.772;39.872;2023-08-06T02:52:16;24.10;52.97
75683;HTU21D;64295;44.772;39.872;2023-08-06T02:54:42;24.14;53.00
75683;HTU21D;64295;44.772;39.872;2023-08-06T02:57:09;24.17;52.97
75683;HTU21D;64295;44.772;39.872;2023-08-06T02:59:35;24.21;52.97
75683;HTU21D;64295;44.772;39.872;2023-08-06T03:02:19;24.24;52.88
75683;HTU21D;64295;44.772;39.872;2023-08-06T03:04:58;24.28;52.78
75683;HTU21D;64295;44.772;39.872;2023-08-06T03:07:29;24.33;52.71
75683;HTU21D;64295;44.772;39.872;2023-08-06T03:10:01;24.38;52.66
75683;HTU21D;64295;44.772;39.872;2023-08-06T03:12:29;24.40;52.59
75683;HTU21D;64295;44.772;39.872;2023-08-06T03:14:57;24.46;52.55
75683;HTU21D;64295;44.772;39.872;2023-08-06T03:17:23;24.51;52.53
75683;HTU21D;64295;44.772;39.872;2023-08-06T03:19:49;24.58;52.49
75683;HTU21D;64295;44.772;39.872;2023-08-06T03:22:20;24.64;52.47
75683;HTU21D;64295;44.772;39.872;2023-08-06T03:24:50;24.69;52.44
75683;HTU21D;64295;44.772;39.872;2023-08-06T03:27:19;24.73;52.24
75683;HTU21D;64295;44.772;39.872;2023-08-06T03:29:49;24.74;52.29
75683;HTU21D;64295;44.772;39.872;2023-08-06T03:32:21;24.79;52.25
75683;HTU21D;64295;44.772;39.872;2023-08-06T03:34:47;24.87;51.99
75683;HTU21D;64295;44.772;39.872;2023-08-06T03:37:14;24.92;51.96
75683;HTU21D;64295;44.772;39.872;2023-08-06T03:39:40;24.99;51.91
75683;HTU21D;64295;44.772;39.872;2023-08-06T03:42:06;25.03;51.93
75683;HTU21D;64295;44.772;39.872;2023-08-06T03:44:32;25.12;51.93
75683;HTU21D;64295;44.772;39.872;2023-08-06T03:46:58;25.19;51.83
75683;HTU21D;64295;44.772;39.872;2023-08-06T03:49:24;25.25;51.75
75683;HTU21D;64295;44.772;39.872;2023-08-06T03:51:52;25.32;51.66
75683;HTU21D;64295;44.772;39.872;2023-08-06T03:54:18;25.39;51.62
75683;HTU21D;64295;44.772;39.872;2023-08-06T03:56:47;25.48;51.55
75683;HTU21D;64295;44.772;39.872;2023-08-06T03:59:13;25.54;51.45
75683;HTU21D;64295;44.772;39.872;2023-08-06T04:01:39;25.64;51.34
75683;HTU21D;64295;44.772;39.872;2023-08-06T04:04:05;25.73;51.15
75683;HTU21D;64295;44.772;39.872;2023-08-06T04:06:32;25.81;51.01
75683;HTU21D;64295;44.772;39.872;2023-08-06T04:08:58;25.89;50.94
75683;HTU21D;64295;44.772;39.872;2023-08-06T04:11:28;25.97;50.78
75683;HTU21D;64295;44.772;39.872;2023-08-06T04:13:54;26.05;50.76
75683;HTU21D;64295;44.772;39.872;2023-08-06T04:16:21;26.10;50.73
75683;HTU21D;64295;44.772;39.872;2023-08-06T04:18:47;26.16;50.71
75683;HTU21D;64295;44.772;39.872;2023-08-06T04:21:13;26.23;50.59
75683;HTU21D;64295;44.772;39.872;2023-08-06T04:23:40;26.30;50.56
75683;HTU21D;64295;44.772;39.872;2023-08-06T04:26:09;26.38;50.47
75683;HTU21D;64295;44.772;39.872;2023-08-06T04:28:36;26.46;50.43
75683;HTU21D;64295;44.772;39.872;2023-08-06T04:31:03;26.52;50.38
75683;HTU21D;64295;44.772;39.872;2023-08-06T04:33:32;26.60;50.25
75683;HTU21D;64295;44.772;39.872;2023-08-06T04:36:05;26.66;50.14
75683;HTU21D;64295;44.772;39.872;2023-08-06T04:38:31;26.69;50.16
75683;HTU21D;64295;44.772;39.872;2023-08-06T04:40:58;26.72;50.08
75683;HTU21D;64295;44.772;39.872;2023-08-06T04:43:24;26.77;50.09
75683;HTU21D;64295;44.772;39.872;2023-08-06T04:45:53;26.81;50.10
75683;HTU21D;64295;44.772;39.872;2023-08-06T04:48:19;26.85;50.08
75683;HTU21D;64295;44.772;39.872;2023-08-06T04:50:50;26.90;50.02
75683;HTU21D;64295;44.772;39.872;2023-08-06T04:53:17;26.91;50.00
75683;HTU21D;64295;44.772;39.872;2023-08-06T04:55:44;26.94;49.93
75683;HTU21D;64295;44.772;39.872;2023-08-06T04:58:10;26.97;49.86
75683;HTU21D;64295;44.772;39.872;2023-08-06T05:00:36;27.01;49.69
75683;HTU21D;64295;44.772;39.872;2023-08-06T05:03:02;27.02;49.69
75683;HTU21D;64295;44.772;39.872;2023-08-06T05:05:28;27.11;49.69
75683;HTU21D;64295;44.772;39.872;2023-08-06T05:07:56;27.17;49.51
75683;HTU21D;64295;44.772;39.872;2023-08-06T05:10:25;27.25;49.43
75683;HTU21D;64295;44.772;39.872;2023-08-06T05:12:52;27.31;49.44
75683;HTU21D;64295;44.772;39.872;2023-08-06T05:15:18;27.42;49.29
75683;HTU21D;64295;44.772;39.872;2023-08-06T05:17:45;27.51;49.18
75683;HTU21D;64295;44.772;39.872;2023-08-06T05:20:14;27.60;49.11
75683;HTU21D;64295;44.772;39.872;2023-08-06T05:22:40;27.68;48.93
75683;HTU21D;64295;44.772;39.872;2023-08-06T05:25:13;27.76;48.87
75683;HTU21D;64295;44.772;39.872;2023-08-06T05:27:40;27.82;48.77
75683;HTU21D;64295;44.772;39.872;2023-08-06T05:30:06;27.86;48.69
75683;HTU21D;64295;44.772;39.872;2023-08-06T05:32:33;27.96;48.56
75683;HTU21D;64295;44.772;39.872;2023-08-06T05:34:59;28.04;48.41
75683;HTU21D;64295;44.772;39.872;2023-08-06T05:37:25;28.14;48.24
75683;HTU21D;64295;44.772;39.872;2023-08-06T05:39:52;28.24;48.10
75683;HTU21D;64295;44.772;39.872;2023-08-06T05:42:21;28.33;47.92
75683;HTU21D;64295;44.772;39.872;2023-08-06T05:44:47;28.41;47.78
75683;HTU21D;64295;44.772;39.872;2023-08-06T05:47:13;28.49;47.64
75683;HTU21D;64295;44.772;39.872;2023-08-06T05:49:45;28.57;47.50
75683;HTU21D;64295;44.772;39.872;2023-08-06T05:52:13;28.65;47.32
75683;HTU21D;64295;44.772;39.872;2023-08-06T05:54:39;28.70;47.14
75683;HTU21D;64295;44.772;39.872;2023-08-06T05:57:06;28.78;47.02
75683;HTU21D;64295;44.772;39.872;2023-08-06T05:59:33;28.85;46.87
75683;HTU21D;64295;44.772;39.872;2023-08-06T06:01:59;28.93;46.71
75683;HTU21D;64295;44.772;39.872;2023-08-06T06:04:26;29.04;46.58
75683;HTU21D;64295;44.772;39.872;2023-08-06T06:06:52;29.18;46.37
75683;HTU21D;64295;44.772;39.872;2023-08-06T06:09:21;29.27;46.15
75683;HTU21D;64295;44.772;39.872;2023-08-06T06:11:47;29.34;45.99
75683;HTU21D;64295;44.772;39.872;2023-08-06T06:14:17;29.46;45.80
75683;HTU21D;64295;44.772;39.872;2023-08-06T06:16:44;29.59;45.57
75683;HTU21D;64295;44.772;39.872;2023-08-06T06:19:11;29.68;45.43
75683;HTU21D;64295;44.772;39.872;2023-08-06T06:21:37;29.81;45.18
75683;HTU21D;64295;44.772;39.872;2023-08-06T06:24:05;29.92;45.01
75683;HTU21D;64295;44.772;39.872;2023-08-06T06:26:32;29.98;44.86
75683;HTU21D;64295;44.772;39.872;2023-08-06T06:28:58;30.11;44.64
75683;HTU21D;64295;44.772;39.872;2023-08-06T06:31:25;30.19;44.48
75683;HTU21D;64295;44.772;39.872;2023-08-06T06:33:54;30.28;44.29
75683;HTU21D;64295;44.772;39.872;2023-08-06T06:36:23;30.38;44.15
75683;HTU21D;64295;44.772;39.872;2023-08-06T06:38:49;30.49;44.00
75683;HTU21D;64295;44.772;39.872;2023-08-06T06:41:15;30.61;43.81
75683;HTU21D;64295;44.772;39.872;2023-08-06T06:43:41;30.72;43.61
75683;HTU21D;64295;44.772;39.872;2023-08-06T06:46:07;30.81;43.45
75683;HTU21D;64295;44.772;39.872;2023-08-06T06:48:33;30.90;43.24
75683;HTU21D;64295;44.772;39.872;2023-08-06T06:50:59;31.00;43.06
75683;HTU21D;64295;44.772;39.872;2023-08-06T06:53:28;31.15;42.88
75683;HTU21D;64295;44.772;39.872;2023-08-06T06:56:04;31.25;42.63
75683;HTU21D;64295;44.772;39.872;2023-08-06T06:58:31;31.39;42.43
75683;HTU21D;64295;44.772;39.872;2023-08-06T07:01:00;31.49;42.20
75683;HTU21D;64295;44.772;39.872;2023-08-06T07:03:26;31.58;42.01
75683;HTU21D;64295;44.772;39.872;2023-08-06T07:05:57;31.69;41.83
75683;HTU21D;64295;44.772;39.872;2023-08-06T07:08:27;31.82;41.65
75683;HTU21D;64295;44.772;39.872;2023-08-06T07:11:04;31.97;41.39
75683;HTU21D;64295;44.772;39.872;2023-08-06T07:13:30;32.05;41.32
75683;HTU21D;64295;44.772;39.872;2023-08-06T07:15:58;32.18;41.49
75683;HTU21D;64295;44.772;39.872;2023-08-06T07:18:27;32.29;41.26
75683;HTU21D;64295;44.772;39.872;2023-08-06T07:20:54;32.37;41.11
75683;HTU21D;64295;44.772;39.872;2023-08-06T07:23:24;32.49;40.92
75683;HTU21D;64295;44.772;39.872;2023-08-06T07:25:51;32.64;40.68
75683;HTU21D;64295;44.772;39.872;2023-08-06T07:28:17;32.79;40.48
75683;HTU21D;64295;44.772;39.872;2023-08-06T07:30:44;32.94;40.31
75683;HTU21D;64295;44.772;39.872;2023-08-06T07:33:15;33.14;39.96
75683;HTU21D;64295;44.772;39.872;2023-08-06T07:35:41;33.25;39.76
75683;HTU21D;64295;44.772;39.872;2023-08-06T07:38:08;33.35;39.61
75683;HTU21D;64295;44.772;39.872;2023-08-06T07:40:36;33.44;39.30
75683;HTU21D;64295;44.772;39.872;2023-08-06T07:43:05;33.56;39.07
75683;HTU21D;64295;44.772;39.872;2023-08-06T07:45:35;33.65;38.86
75683;HTU21D;64295;44.772;39.872;2023-08-06T07:48:03;33.77;38.68
75683;HTU21D;64295;44.772;39.872;2023-08-06T07:50:29;33.89;38.51
75683;HTU21D;64295;44.772;39.872;2023-08-06T07:52:58;34.05;38.38
75683;HTU21D;64295;44.772;39.872;2023-08-06T07:55:57;34.25;38.06
75683;HTU21D;64295;44.772;39.872;2023-08-06T07:58:38;34.36;37.93
75683;HTU21D;64295;44.772;39.872;2023-08-06T08:01:09;34.46;37.67
75683;HTU21D;64295;44.772;39.872;2023-08-06T08:03:39;34.55;37.41
75683;HTU21D;64295;44.772;39.872;2023-08-06T08:06:38;34.65;37.27
75683;HTU21D;64295;44.772;39.872;2023-08-06T08:09:13;34.76;37.10
75683;HTU21D;64295;44.772;39.872;2023-08-06T08:11:45;34.85;36.85
75683;HTU21D;64295;44.772;39.872;2023-08-06T08:14:29;34.89;36.75
75683;HTU21D;64295;44.772;39.872;2023-08-06T08:17:06;34.98;36.39
75683;HTU21D;64295;44.772;39.872;2023-08-06T08:19:49;35.09;36.17
75683;HTU21D;64295;44.772;39.872;2023-08-06T08:22:52;35.20;35.95
75683;HTU21D;64295;44.772;39.872;2023-08-06T08:25:27;35.34;35.70
75683;HTU21D;64295;44.772;39.872;2023-08-06T08:28:29;35.42;35.63
75683;HTU21D;64295;44.772;39.872;2023-08-06T08:31:03;35.48;36.08
75683;HTU21D;64295;44.772;39.872;2023-08-06T08:33:33;35.60;35.58
75683;HTU21D;64295;44.772;39.872;2023-08-06T08:36:04;35.70;35.45
75683;HTU21D;64295;44.772;39.872;2023-08-06T08:38:46;35.87;34.97
75683;HTU21D;64295;44.772;39.872;2023-08-06T08:41:23;35.95;34.74
75683;HTU21D;64295;44.772;39.872;2023-08-06T08:44:22;36.04;34.59
75683;HTU21D;64295;44.772;39.872;2023-08-06T08:47:12;36.17;34.44
75683;HTU21D;64295;44.772;39.872;2023-08-06T08:50:06;36.31;34.07
75683;HTU21D;64295;44.772;39.872;2023-08-06T08:52:54;36.43;33.81
75683;HTU21D;64295;44.772;39.872;2023-08-06T08:55:31;36.54;33.36
75683;HTU21D;64295;44.772;39.872;2023-08-06T08:58:01;36.63;33.08
75683;HTU21D;64295;44.772;39.872;2023-08-06T09:03:33;36.89;32.67
75683;HTU21D;64295;44.772;39.872;2023-08-06T09:06:04;36.97;32.54
75683;HTU21D;64295;44.772;39.872;2023-08-06T09:08:47;37.04;32.40
75683;HTU21D;64295;44.772;39.872;2023-08-06T09:11:27;37.03;32.42
75683;HTU21D;64295;44.772;39.872;2023-08-06T09:14:29;37.07;32.33
75683;HTU21D;64295;44.772;39.872;2023-08-06T09:16:55;37.07;32.22
75683;HTU21D;64295;44.772;39.872;2023-08-06T09:19:48;37.16;31.99
75683;HTU21D;64295;44.772;39.872;2023-08-06T09:22:20;37.18;31.60
75683;HTU21D;64295;44.772;39.872;2023-08-06T09:24:56;37.21;31.55
75683;HTU21D;64295;44.772;39.872;2023-08-06T09:27:36;37.28;31.73
75683;HTU21D;64295;44.772;39.872;2023-08-06T09:30:47;37.36;31.71
75683;HTU21D;64295;44.772;39.872;2023-08-06T09:33:32;37.41;31.76
75683;HTU21D;64295;44.772;39.872;2023-08-06T09:36:14;37.41;31.78
75683;HTU21D;64295;44.772;39.872;2023-08-06T09:38:49;37.46;31.55
75683;HTU21D;64295;44.772;39.872;2023-08-06T09:41:34;37.52;31.32
75683;HTU21D;64295;44.772;39.872;2023-08-06T09:44:04;37.57;31.06
75683;HTU21D;64295;44.772;39.872;2023-08-06T09:47:00;37.60;30.86
75683;HTU21D;64295;44.772;39.872;2023-08-06T09:49:43;37.69;30.77
75683;HTU21D;64295;44.772;39.872;2023-08-06T09:55:51;37.81;30.84
75683;HTU21D;64295;44.772;39.872;2023-08-06T09:58:25;37.87;30.85
75683;HTU21D;64295;44.772;39.872;2023-08-06T10:00:59;37.96;30.54
75683;HTU21D;64295;44.772;39.872;2023-08-06T10:03:26;38.06;30.26
75683;HTU21D;64295;44.772;39.872;2023-08-06T10:06:05;38.07;30.15
75683;HTU21D;64295;44.772;39.872;2023-08-06T10:08:42;38.06;30.00
75683;HTU21D;64295;44.772;39.872;2023-08-06T10:11:29;38.09;29.97
75683;HTU21D;64295;44.772;39.872;2023-08-06T10:14:00;38.15;29.88
75683;HTU21D;64295;44.772;39.872;2023-08-06T10:16:34;38.11;29.76
75683;HTU21D;64295;44.772;39.872;2023-08-06T10:19:23;38.12;29.80
75683;HTU21D;64295;44.772;39.872;2023-08-06T10:22:18;38.12;29.72
75683;HTU21D;64295;44.772;39.872;2023-08-06T10:25:09;38.15;29.50
75683;HTU21D;64295;44.772;39.872;2023-08-06T10:30:33;38.20;29.33
75683;HTU21D;64295;44.772;39.872;2023-08-06T10:33:06;38.20;29.40
75683;HTU21D;64295;44.772;39.872;2023-08-06T10:35:50;38.17;29.49
75683;HTU21D;64295;44.772;39.872;2023-08-06T10:38:27;38.23;29.25
75683;HTU21D;64295;44.772;39.872;2023-08-06T10:41:01;38.28;29.07
75683;HTU21D;64295;44.772;39.872;2023-08-06T10:43:39;38.29;28.92
75683;HTU21D;64295;44.772;39.872;2023-08-06T10:46:26;38.31;28.90
75683;HTU21D;64295;44.772;39.872;2023-08-06T10:48:52;38.36;28.73
75683;HTU21D;64295;44.772;39.872;2023-08-06T10:51:23;38.36;28.59
75683;HTU21D;64295;44.772;39.872;2023-08-06T10:53:52;38.41;28.49
75683;HTU21D;64295;44.772;39.872;2023-08-06T10:56:22;38.47;28.47
75683;HTU21D;64295;44.772;39.872;2023-08-06T10:58:54;38.54;28.48
75683;HTU21D;64295;44.772;39.872;2023-08-06T11:01:29;38.61;28.27
75683;HTU21D;64295;44.772;39.872;2023-08-06T11:04:15;38.65;28.09
75683;HTU21D;64295;44.772;39.872;2023-08-06T11:06:57;38.66;28.02
75683;HTU21D;64295;44.772;39.872;2023-08-06T11:09:39;38.65;28.16
75683;HTU21D;64295;44.772;39.872;2023-08-06T11:12:11;38.69;28.09
75683;HTU21D;64295;44.772;39.872;2023-08-06T11:14:50;38.70;28.26
75683;HTU21D;64295;44.772;39.872;2023-08-06T11:17:58;38.73;28.42
75683;HTU21D;64295;44.772;39.872;2023-08-06T11:24:03;38.81;28.50
75683;HTU21D;64295;44.772;39.872;2023-08-06T11:26:47;38.81;28.57
75683;HTU21D;64295;44.772;39.872;2023-08-06T11:30:00;38.85;28.47
75683;HTU21D;64295;44.772;39.872;2023-08-06T11:33:01;38.85;28.32
75683;HTU21D;64295;44.772;39.872;2023-08-06T11:39:14;38.92;28.49
75683;HTU21D;64295;44.772;39.872;2023-08-06T11:41:47;38.91;28.53
75683;HTU21D;64295;44.772;39.872;2023-08-06T11:44:22;38.88;28.53
75683;HTU21D;64295;44.772;39.872;2023-08-06T11:46:56;38.88;28.49
75683;HTU21D;64295;44.772;39.872;2023-08-06T11:49:38;38.95;28.31
75683;HTU21D;64295;44.772;39.872;2023-08-06T11:52:31;38.96;28.32
75683;HTU21D;64295;44.772;39.872;2023-08-06T11:55:17;38.99;28.20
75683;HTU21D;64295;44.772;39.872;2023-08-06T11:57:59;39.03;28.23
75683;HTU21D;64295;44.772;39.872;2023-08-06T12:00:46;38.86;28.48
75683;HTU21D;64295;44.772;39.872;2023-08-06T12:03:24;38.90;28.58
75683;HTU21D;64295;44.772;39.872;2023-08-06T12:05:56;38.95;28.50
75683;HTU21D;64295;44.772;39.872;2023-08-06T12:08:29;38.96;28.58
75683;HTU21D;64295;44.772;39.872;2023-08-06T12:11:03;38.97;28.49
75683;HTU21D;64295;44.772;39.872;2023-08-06T12:13:31;38.98;28.61
75683;HTU21D;64295;44.772;39.872;2023-08-06T12:16:03;39.03;28.32
75683;HTU21D;64295;44.772;39.872;2023-08-06T12:18:50;39.04;28.38
75683;HTU21D;64295;44.772;39.872;2023-08-06T12:21:37;39.08;28.32
75683;HTU21D;64295;44.772;39.872;2023-08-06T12:24:23;39.08;28.36
75683;HTU21D;64295;44.772;39.872;2023-08-06T12:27:05;39.14;28.34
75683;HTU21D;64295;44.772;39.872;2023-08-06T12:29:46;39.17;28.19
75683;HTU21D;64295;44.772;39.872;2023-08-06T12:32:20;39.17;28.22
75683;HTU21D;64295;44.772;39.872;2023-08-06T12:35:19;39.14;28.05
75683;HTU21D;64295;44.772;39.872;2023-08-06T12:37:52;39.13;28.03
75683;HTU21D;64295;44.772;39.872;2023-08-06T12:40:25;39.11;28.03
75683;HTU21D;64295;44.772;39.872;2023-08-06T12:43:04;39.07;28.06
75683;HTU21D;64295;44.772;39.872;2023-08-06T12:45:31;39.09;27.93
75683;HTU21D;64295;44.772;39.872;2023-08-06T12:48:04;39.13;27.92
75683;HTU21D;64295;44.772;39.872;2023-08-06T12:50:47;39.12;27.89
75683;HTU21D;64295;44.772;39.872;2023-08-06T12:53:22;39.05;28.16
75683;HTU21D;64295;44.772;39.872;2023-08-06T12:55:53;39.03;28.31
75683;HTU21D;64295;44.772;39.872;2023-08-06T12:58:42;38.99;28.38
75683;HTU21D;64295;44.772;39.872;2023-08-06T13:01:37;38.99;28.33
75683;HTU21D;64295;44.772;39.872;2023-08-06T13:04:26;39.02;28.30
75683;HTU21D;64295;44.772;39.872;2023-08-06T13:07:00;39.02;28.28
75683;HTU21D;64295;44.772;39.872;2023-08-06T13:09:32;39.08;28.11
75683;HTU21D;64295;44.772;39.872;2023-08-06T13:12:14;39.07;27.94
75683;HTU21D;64295;44.772;39.872;2023-08-06T13:14:49;39.02;28.13
75683;HTU21D;64295;44.772;39.872;2023-08-06T13:17:19;39.00;28.24
75683;HTU21D;64295;44.772;39.872;2023-08-06T13:19:51;39.03;28.16
75683;HTU21D;64295;44.772;39.872;2023-08-06T13:22:46;38.93;28.07
75683;HTU21D;64295;44.772;39.872;2023-08-06T13:25:15;38.90;27.98
75683;HTU21D;64295;44.772;39.872;2023-08-06T13:28:36;38.92;27.95
75683;HTU21D;64295;44.772;39.872;2023-08-06T13:31:11;38.94;27.86
75683;HTU21D;64295;44.772;39.872;2023-08-06T13:33:43;38.95;27.79
75683;HTU21D;64295;44.772;39.872;2023-08-06T13:36:12;38.96;27.65
75683;HTU21D;64295;44.772;39.872;2023-08-06T13:42:09;38.80;27.72
75683;HTU21D;64295;44.772;39.872;2023-08-06T13:44:38;38.82;27.68
75683;HTU21D;64295;44.772;39.872;2023-08-06T13:47:12;38.76;28.11
75683;HTU21D;64295;44.772;39.872;2023-08-06T13:49:49;38.76;27.83
75683;HTU21D;64295;44.772;39.872;2023-08-06T13:55:27;38.63;27.65
75683;HTU21D;64295;44.772;39.872;2023-08-06T13:57:55;38.59;27.58
75683;HTU21D;64295;44.772;39.872;2023-08-06T14:00:25;38.59;27.36
75683;HTU21D;64295;44.772;39.872;2023-08-06T14:02:58;38.55;27.34
75683;HTU21D;64295;44.772;39.872;2023-08-06T14:05:39;38.48;27.42
75683;HTU21D;64295;44.772;39.872;2023-08-06T14:08:12;38.44;27.38
75683;HTU21D;64295;44.772;39.872;2023-08-06T14:11:04;38.41;27.39
75683;HTU21D;64295;44.772;39.872;2023-08-06T14:13:46;38.33;27.30
75683;HTU21D;64295;44.772;39.872;2023-08-06T14:16:18;38.26;27.26
75683;HTU21D;64295;44.772;39.872;2023-08-06T14:18:50;38.21;27.27
75683;HTU21D;64295;44.772;39.872;2023-08-06T14:21:40;38.16;27.29
75683;HTU21D;64295;44.772;39.872;2023-08-06T14:24:16;38.09;27.26
75683;HTU21D;64295;44.772;39.872;2023-08-06T14:26:42;38.05;27.26
75683;HTU21D;64295;44.772;39.872;2023-08-06T14:29:13;38.05;27.16
75683;HTU21D;64295;44.772;39.872;2023-08-06T14:31:45;37.95;27.16
75683;HTU21D;64295;44.772;39.872;2023-08-06T14:34:14;37.91;27.21
75683;HTU21D;64295;44.772;39.872;2023-08-06T14:36:44;37.87;27.23
75683;HTU21D;64295;44.772;39.872;2023-08-06T14:39:23;37.78;27.33
75683;HTU21D;64295;44.772;39.872;2023-08-06T14:42:20;37.72;27.42
75683;HTU21D;64295;44.772;39.872;2023-08-06T14:45:22;37.66;27.50
75683;HTU21D;64295;44.772;39.872;2023-08-06T14:47:48;37.64;27.55
75683;HTU21D;64295;44.772;39.872;2023-08-06T14:50:26;37.61;27.58
75683;HTU21D;64295;44.772;39.872;2023-08-06T14:52:57;37.55;27.67
75683;HTU21D;64295;44.772;39.872;2023-08-06T14:55:28;37.50;27.71
75683;HTU21D;64295;44.772;39.872;2023-08-06T14:58:02;37.44;27.83
75683;HTU21D;64295;44.772;39.872;2023-08-06T15:00:34;37.40;27.94
75683;HTU21D;64295;44.772;39.872;2023-08-06T15:03:00;37.37;28.00
75683;HTU21D;64295;44.772;39.872;2023-08-06T15:05:27;37.35;28.07
75683;HTU21D;64295;44.772;39.872;2023-08-06T15:08:01;37.31;28.16
75683;HTU21D;64295;44.772;39.872;2023-08-06T15:10:27;37.25;28.18
75683;HTU21D;64295;44.772;39.872;2023-08-06T15:13:00;37.15;28.26
75683;HTU21D;64295;44.772;39.872;2023-08-06T15:15:28;37.05;28.36
75683;HTU21D;64295;44.772;39.872;2023-08-06T15:17:54;36.96;28.42
75683;HTU21D;64295;44.772;39.872;2023-08-06T15:20:22;36.86;28.44
75683;HTU21D;64295;44.772;39.872;2023-08-06T15:23:05;36.77;28.55
75683;HTU21D;64295;44.772;39.872;2023-08-06T15:25:47;36.63;28.68
75683;HTU21D;64295;44.772;39.872;2023-08-06T15:28:13;36.52;28.84
75683;HTU21D;64295;44.772;39.872;2023-08-06T15:30:42;36.41;28.91
75683;HTU21D;64295;44.772;39.872;2023-08-06T15:33:23;36.27;29.07
75683;HTU21D;64295;44.772;39.872;2023-08-06T15:35:49;36.17;29.16
75683;HTU21D;64295;44.772;39.872;2023-08-06T15:38:18;36.09;29.23
75683;HTU21D;64295;44.772;39.872;2023-08-06T15:40:47;35.98;29.31
75683;HTU21D;64295;44.772;39.872;2023-08-06T15:43:13;35.87;29.39
75683;HTU21D;64295;44.772;39.872;2023-08-06T15:45:40;35.78;29.45
75683;HTU21D;64295;44.772;39.872;2023-08-06T15:48:09;35.70;29.55
75683;HTU21D;64295;44.772;39.872;2023-08-06T15:50:37;35.62;29.58
75683;HTU21D;64295;44.772;39.872;2023-08-06T15:53:10;35.53;29.64
75683;HTU21D;64295;44.772;39.872;2023-08-06T15:55:39;35.43;29.69
75683;HTU21D;64295;44.772;39.872;2023-08-06T15:58:05;35.37;29.77
75683;HTU21D;64295;44.772;39.872;2023-08-06T16:00:34;35.28;29.81
75683;HTU21D;64295;44.772;39.872;2023-08-06T16:03:02;35.21;29.88
75683;HTU21D;64295;44.772;39.872;2023-08-06T16:05:28;35.14;29.93